sensor_id;sensor_type;location;lat;lon;timestamp;P1;durP1;ratioP1;P2;durP2;ratioP2
68229;SDS011;55048;52.220;5.160;2022-10-31T00:01:22;6.55;;;2.83;;
68229;SDS011;55048;52.220;5.160;2022-10-31T00:03:50;7.60;;;3.10;;
68229;SDS011;55048;52.220;5.160;2022-10-31T00:06:16;10.52;;;3.45;;
68229;SDS011;55048;52.220;5.160;2022-10-31T00:08:45;5.55;;;2.78;;
68229;SDS011;55048;52.220;5.160;2022-10-31T00:11:21;5.72;;;2.90;;
68229;SDS011;55048;52.220;5.160;2022-10-31T00:13:47;7.45;;;3.25;;
68229;SDS011;55048;52.220;5.160;2022-10-31T00:16:16;10.07;;;3.17;;
68229;SDS011;55048;52.220;5.160;2022-10-31T00:18:47;9.38;;;3.28;;
68229;SDS011;55048;52.220;5.160;2022-10-31T00:21:15;7.65;;;3.45;;
68229;SDS011;55048;52.220;5.160;2022-10-31T00:23:41;7.25;;;2.58;;
68229;SDS011;55048;52.220;5.160;2022-10-31T00:26:06;10.30;;;3.15;;
68229;SDS011;55048;52.220;5.160;2022-10-31T00:28:32;9.90;;;3.42;;
68229;SDS011;55048;52.220;5.160;2022-10-31T00:30:58;8.30;;;3.03;;
68229;SDS011;55048;52.220;5.160;2022-10-31T00:33:25;5.15;;;3.10;;
68229;SDS011;55048;52.220;5.160;2022-10-31T00:35:50;6.07;;;2.65;;
68229;SDS011;55048;52.220;5.160;2022-10-31T00:38:16;7.15;;;2.45;;
68229;SDS011;55048;52.220;5.160;2022-10-31T00:40:41;12.55;;;3.38;;
68229;SDS011;55048;52.220;5.160;2022-10-31T00:43:06;7.60;;;2.85;;
68229;SDS011;55048;52.220;5.160;2022-10-31T00:45:32;4.57;;;2.88;;
68229;SDS011;55048;52.220;5.160;2022-10-31T00:47:57;7.93;;;3.08;;
68229;SDS011;55048;52.220;5.160;2022-10-31T00:50:22;8.88;;;2.55;;
68229;SDS011;55048;52.220;5.160;2022-10-31T00:52:48;11.57;;;2.90;;
68229;SDS011;55048;52.220;5.160;2022-10-31T00:55:13;4.30;;;2.25;;
68229;SDS011;55048;52.220;5.160;2022-10-31T00:57:39;6.50;;;2.83;;
68229;SDS011;55048;52.220;5.160;2022-10-31T01:00:05;6.53;;;2.90;;
68229;SDS011;55048;52.220;5.160;2022-10-31T01:02:31;8.93;;;2.88;;
68229;SDS011;55048;52.220;5.160;2022-10-31T01:04:56;7.20;;;2.83;;
68229;SDS011;55048;52.220;5.160;2022-10-31T01:07:22;6.07;;;3.03;;
68229;SDS011;55048;52.220;5.160;2022-10-31T01:09:47;6.80;;;2.63;;
68229;SDS011;55048;52.220;5.160;2022-10-31T01:12:12;7.00;;;3.13;;
68229;SDS011;55048;52.220;5.160;2022-10-31T01:14:42;5.82;;;3.38;;
68229;SDS011;55048;52.220;5.160;2022-10-31T01:17:09;8.30;;;3.10;;
68229;SDS011;55048;52.220;5.160;2022-10-31T01:19:35;6.38;;;2.85;;
68229;SDS011;55048;52.220;5.160;2022-10-31T01:22:00;5.82;;;3.10;;
68229;SDS011;55048;52.220;5.160;2022-10-31T01:24:28;8.85;;;3.38;;
68229;SDS011;55048;52.220;5.160;2022-10-31T01:26:53;8.30;;;3.35;;
68229;SDS011;55048;52.220;5.160;2022-10-31T01:29:18;9.43;;;3.67;;
68229;SDS011;55048;52.220;5.160;2022-10-31T01:31:44;7.22;;;3.17;;
68229;SDS011;55048;52.220;5.160;2022-10-31T01:34:13;11.25;;;3.55;;
68229;SDS011;55048;52.220;5.160;2022-10-31T01:36:41;6.20;;;3.17;;
68229;SDS011;55048;52.220;5.160;2022-10-31T01:39:10;7.88;;;3.45;;
68229;SDS011;55048;52.220;5.160;2022-10-31T01:41:38;6.13;;;3.45;;
68229;SDS011;55048;52.220;5.160;2022-10-31T01:47:01;7.30;;;3.28;;
68229;SDS011;55048;52.220;5.160;2022-10-31T01:49:40;5.70;;;3.33;;
68229;SDS011;55048;52.220;5.160;2022-10-31T01:52:12;5.55;;;3.42;;
68229;SDS011;55048;52.220;5.160;2022-10-31T01:54:39;8.73;;;4.10;;
68229;SDS011;55048;52.220;5.160;2022-10-31T01:57:08;9.40;;;3.45;;
68229;SDS011;55048;52.220;5.160;2022-10-31T01:59:40;10.63;;;3.75;;
68229;SDS011;55048;52.220;5.160;2022-10-31T02:02:11;11.30;;;3.95;;
68229;SDS011;55048;52.220;5.160;2022-10-31T02:04:39;7.38;;;3.60;;
68229;SDS011;55048;52.220;5.160;2022-10-31T02:07:10;6.07;;;3.17;;
68229;SDS011;55048;52.220;5.160;2022-10-31T02:09:39;8.43;;;3.47;;
68229;SDS011;55048;52.220;5.160;2022-10-31T02:12:05;11.10;;;4.05;;
68229;SDS011;55048;52.220;5.160;2022-10-31T02:14:34;11.43;;;4.00;;
68229;SDS011;55048;52.220;5.160;2022-10-31T02:17:02;8.82;;;3.25;;
68229;SDS011;55048;52.220;5.160;2022-10-31T02:19:30;8.73;;;3.78;;
68229;SDS011;55048;52.220;5.160;2022-10-31T02:24:45;6.18;;;3.90;;
68229;SDS011;55048;52.220;5.160;2022-10-31T02:27:47;8.93;;;3.97;;
68229;SDS011;55048;52.220;5.160;2022-10-31T02:39:02;9.65;;;4.00;;
68229;SDS011;55048;52.220;5.160;2022-10-31T02:44:39;9.63;;;4.55;;
68229;SDS011;55048;52.220;5.160;2022-10-31T02:47:11;10.63;;;4.28;;
68229;SDS011;55048;52.220;5.160;2022-10-31T02:49:42;11.38;;;4.93;;
68229;SDS011;55048;52.220;5.160;2022-10-31T02:52:28;8.43;;;4.28;;
68229;SDS011;55048;52.220;5.160;2022-10-31T02:57:48;7.97;;;4.45;;
68229;SDS011;55048;52.220;5.160;2022-10-31T03:00:13;8.75;;;4.68;;
68229;SDS011;55048;52.220;5.160;2022-10-31T03:19:13;10.55;;;4.97;;
68229;SDS011;55048;52.220;5.160;2022-10-31T03:21:44;11.68;;;4.55;;
68229;SDS011;55048;52.220;5.160;2022-10-31T03:24:37;10.60;;;5.00;;
68229;SDS011;55048;52.220;5.160;2022-10-31T03:27:05;10.30;;;5.25;;
68229;SDS011;55048;52.220;5.160;2022-10-31T03:29:34;10.02;;;5.97;;
68229;SDS011;55048;52.220;5.160;2022-10-31T03:32:08;11.73;;;5.82;;
68229;SDS011;55048;52.220;5.160;2022-10-31T03:34:45;10.00;;;5.45;;
68229;SDS011;55048;52.220;5.160;2022-10-31T03:37:15;12.68;;;6.32;;
68229;SDS011;55048;52.220;5.160;2022-10-31T03:39:45;11.18;;;5.75;;
68229;SDS011;55048;52.220;5.160;2022-10-31T03:42:24;10.27;;;6.07;;
68229;SDS011;55048;52.220;5.160;2022-10-31T03:44:53;13.40;;;7.40;;
68229;SDS011;55048;52.220;5.160;2022-10-31T03:47:23;15.38;;;7.55;;
68229;SDS011;55048;52.220;5.160;2022-10-31T03:49:48;18.27;;;7.57;;
68229;SDS011;55048;52.220;5.160;2022-10-31T03:52:28;19.83;;;8.25;;
68229;SDS011;55048;52.220;5.160;2022-10-31T03:55:07;18.92;;;8.20;;
68229;SDS011;55048;52.220;5.160;2022-10-31T04:00:17;11.40;;;7.68;;
68229;SDS011;55048;52.220;5.160;2022-10-31T04:02:45;11.95;;;7.72;;
68229;SDS011;55048;52.220;5.160;2022-10-31T04:05:35;18.60;;;8.50;;
68229;SDS011;55048;52.220;5.160;2022-10-31T04:08:03;17.30;;;8.90;;
68229;SDS011;55048;52.220;5.160;2022-10-31T04:10:32;16.30;;;9.25;;
68229;SDS011;55048;52.220;5.160;2022-10-31T04:13:03;15.20;;;8.25;;
68229;SDS011;55048;52.220;5.160;2022-10-31T04:15:38;12.35;;;8.07;;
68229;SDS011;55048;52.220;5.160;2022-10-31T04:18:06;14.40;;;8.75;;
68229;SDS011;55048;52.220;5.160;2022-10-31T04:22:58;18.48;;;9.20;;
68229;SDS011;55048;52.220;5.160;2022-10-31T04:25:25;16.13;;;9.80;;
68229;SDS011;55048;52.220;5.160;2022-10-31T04:27:52;20.10;;;10.35;;
68229;SDS011;55048;52.220;5.160;2022-10-31T04:30:18;16.88;;;9.85;;
68229;SDS011;55048;52.220;5.160;2022-10-31T04:32:43;21.10;;;10.07;;
68229;SDS011;55048;52.220;5.160;2022-10-31T04:35:09;19.88;;;10.82;;
68229;SDS011;55048;52.220;5.160;2022-10-31T04:37:35;20.70;;;10.57;;
68229;SDS011;55048;52.220;5.160;2022-10-31T04:40:02;18.67;;;10.65;;
68229;SDS011;55048;52.220;5.160;2022-10-31T04:42:47;15.30;;;10.43;;
68229;SDS011;55048;52.220;5.160;2022-10-31T04:45:12;17.85;;;10.82;;
68229;SDS011;55048;52.220;5.160;2022-10-31T04:47:38;14.73;;;10.23;;
68229;SDS011;55048;52.220;5.160;2022-10-31T04:50:04;18.58;;;11.07;;
68229;SDS011;55048;52.220;5.160;2022-10-31T04:52:32;16.55;;;11.15;;
68229;SDS011;55048;52.220;5.160;2022-10-31T04:55:03;19.30;;;10.50;;
68229;SDS011;55048;52.220;5.160;2022-10-31T04:57:45;21.13;;;11.88;;
68229;SDS011;55048;52.220;5.160;2022-10-31T05:00:14;22.60;;;12.27;;
68229;SDS011;55048;52.220;5.160;2022-10-31T05:02:42;28.08;;;12.40;;
68229;SDS011;55048;52.220;5.160;2022-10-31T05:05:09;22.75;;;11.82;;
68229;SDS011;55048;52.220;5.160;2022-10-31T05:07:37;20.50;;;11.13;;
68229;SDS011;55048;52.220;5.160;2022-10-31T05:10:03;18.55;;;10.70;;
68229;SDS011;55048;52.220;5.160;2022-10-31T05:12:30;22.73;;;11.30;;
68229;SDS011;55048;52.220;5.160;2022-10-31T05:15:27;20.60;;;11.40;;
68229;SDS011;55048;52.220;5.160;2022-10-31T05:18:19;17.00;;;10.90;;
68229;SDS011;55048;52.220;5.160;2022-10-31T05:21:03;17.70;;;10.65;;
68229;SDS011;55048;52.220;5.160;2022-10-31T05:23:43;21.60;;;11.80;;
68229;SDS011;55048;52.220;5.160;2022-10-31T05:26:08;19.20;;;11.25;;
68229;SDS011;55048;52.220;5.160;2022-10-31T05:28:33;18.08;;;10.77;;
68229;SDS011;55048;52.220;5.160;2022-10-31T05:30:59;16.85;;;11.40;;
68229;SDS011;55048;52.220;5.160;2022-10-31T05:33:25;21.17;;;11.65;;
68229;SDS011;55048;52.220;5.160;2022-10-31T05:36:09;25.42;;;11.77;;
68229;SDS011;55048;52.220;5.160;2022-10-31T05:38:44;19.92;;;11.55;;
68229;SDS011;55048;52.220;5.160;2022-10-31T05:41:22;24.92;;;11.55;;
68229;SDS011;55048;52.220;5.160;2022-10-31T05:43:47;21.85;;;12.63;;
68229;SDS011;55048;52.220;5.160;2022-10-31T05:46:14;26.52;;;12.57;;
68229;SDS011;55048;52.220;5.160;2022-10-31T05:49:06;22.50;;;11.80;;
68229;SDS011;55048;52.220;5.160;2022-10-31T05:51:58;17.23;;;11.65;;
68229;SDS011;55048;52.220;5.160;2022-10-31T05:54:31;22.08;;;12.40;;
68229;SDS011;55048;52.220;5.160;2022-10-31T05:56:57;21.67;;;12.82;;
68229;SDS011;55048;52.220;5.160;2022-10-31T05:59:26;22.50;;;12.30;;
68229;SDS011;55048;52.220;5.160;2022-10-31T06:01:52;24.92;;;13.32;;
68229;SDS011;55048;52.220;5.160;2022-10-31T06:04:36;22.10;;;11.80;;
68229;SDS011;55048;52.220;5.160;2022-10-31T06:07:01;19.30;;;11.85;;
68229;SDS011;55048;52.220;5.160;2022-10-31T06:09:27;24.33;;;12.32;;
68229;SDS011;55048;52.220;5.160;2022-10-31T06:11:54;20.15;;;11.55;;
68229;SDS011;55048;52.220;5.160;2022-10-31T06:14:45;19.38;;;11.90;;
68229;SDS011;55048;52.220;5.160;2022-10-31T06:17:11;22.88;;;12.25;;
68229;SDS011;55048;52.220;5.160;2022-10-31T06:20:02;19.90;;;11.98;;
68229;SDS011;55048;52.220;5.160;2022-10-31T06:22:30;22.48;;;12.20;;
68229;SDS011;55048;52.220;5.160;2022-10-31T06:24:55;23.65;;;12.18;;
68229;SDS011;55048;52.220;5.160;2022-10-31T06:27:27;27.02;;;12.90;;
68229;SDS011;55048;52.220;5.160;2022-10-31T06:29:53;22.25;;;12.95;;
68229;SDS011;55048;52.220;5.160;2022-10-31T06:32:36;30.50;;;13.63;;
68229;SDS011;55048;52.220;5.160;2022-10-31T06:35:02;27.70;;;13.48;;
68229;SDS011;55048;52.220;5.160;2022-10-31T06:37:28;27.67;;;13.38;;
68229;SDS011;55048;52.220;5.160;2022-10-31T06:40:00;30.40;;;13.70;;
68229;SDS011;55048;52.220;5.160;2022-10-31T06:42:25;27.38;;;14.07;;
68229;SDS011;55048;52.220;5.160;2022-10-31T06:44:51;29.95;;;14.35;;
68229;SDS011;55048;52.220;5.160;2022-10-31T06:47:34;24.42;;;13.38;;
68229;SDS011;55048;52.220;5.160;2022-10-31T06:50:04;23.75;;;13.57;;
68229;SDS011;55048;52.220;5.160;2022-10-31T06:52:30;30.70;;;13.43;;
68229;SDS011;55048;52.220;5.160;2022-10-31T06:54:56;29.00;;;14.23;;
68229;SDS011;55048;52.220;5.160;2022-10-31T06:57:22;26.15;;;14.68;;
68229;SDS011;55048;52.220;5.160;2022-10-31T06:59:48;31.08;;;15.88;;
68229;SDS011;55048;52.220;5.160;2022-10-31T07:02:30;51.53;;;22.25;;
68229;SDS011;55048;52.220;5.160;2022-10-31T07:04:56;32.88;;;16.20;;
68229;SDS011;55048;52.220;5.160;2022-10-31T07:07:22;32.78;;;15.93;;
68229;SDS011;55048;52.220;5.160;2022-10-31T07:09:49;27.88;;;15.27;;
68229;SDS011;55048;52.220;5.160;2022-10-31T07:12:17;24.80;;;15.35;;
68229;SDS011;55048;52.220;5.160;2022-10-31T07:14:52;29.85;;;15.77;;
68229;SDS011;55048;52.220;5.160;2022-10-31T07:17:18;31.67;;;15.35;;
68229;SDS011;55048;52.220;5.160;2022-10-31T07:19:44;26.05;;;14.43;;
68229;SDS011;55048;52.220;5.160;2022-10-31T07:22:11;26.38;;;15.23;;
68229;SDS011;55048;52.220;5.160;2022-10-31T07:24:40;32.05;;;16.58;;
68229;SDS011;55048;52.220;5.160;2022-10-31T07:27:41;29.80;;;15.90;;
68229;SDS011;55048;52.220;5.160;2022-10-31T07:30:09;28.92;;;15.32;;
68229;SDS011;55048;52.220;5.160;2022-10-31T07:32:44;28.98;;;15.20;;
68229;SDS011;55048;52.220;5.160;2022-10-31T07:35:14;29.50;;;16.00;;
68229;SDS011;55048;52.220;5.160;2022-10-31T07:38:08;29.63;;;15.85;;
68229;SDS011;55048;52.220;5.160;2022-10-31T07:40:35;28.08;;;15.52;;
68229;SDS011;55048;52.220;5.160;2022-10-31T07:43:01;31.05;;;15.90;;
68229;SDS011;55048;52.220;5.160;2022-10-31T07:45:53;33.55;;;16.52;;
68229;SDS011;55048;52.220;5.160;2022-10-31T07:48:39;28.38;;;16.70;;
68229;SDS011;55048;52.220;5.160;2022-10-31T07:51:23;36.97;;;16.58;;
68229;SDS011;55048;52.220;5.160;2022-10-31T07:54:09;33.72;;;17.30;;
68229;SDS011;55048;52.220;5.160;2022-10-31T07:56:34;34.10;;;18.05;;
68229;SDS011;55048;52.220;5.160;2022-10-31T07:59:00;33.55;;;17.73;;
68229;SDS011;55048;52.220;5.160;2022-10-31T08:01:25;34.92;;;18.10;;
68229;SDS011;55048;52.220;5.160;2022-10-31T08:04:11;38.28;;;18.58;;
68229;SDS011;55048;52.220;5.160;2022-10-31T08:07:14;37.50;;;18.45;;
68229;SDS011;55048;52.220;5.160;2022-10-31T08:12:19;39.97;;;17.10;;
68229;SDS011;55048;52.220;5.160;2022-10-31T08:14:45;38.92;;;18.40;;
68229;SDS011;55048;52.220;5.160;2022-10-31T08:17:12;41.53;;;18.15;;
68229;SDS011;55048;52.220;5.160;2022-10-31T08:19:50;35.63;;;17.17;;
68229;SDS011;55048;52.220;5.160;2022-10-31T08:22:18;38.03;;;18.02;;
68229;SDS011;55048;52.220;5.160;2022-10-31T08:24:43;38.10;;;18.08;;
68229;SDS011;55048;52.220;5.160;2022-10-31T08:27:09;30.48;;;16.95;;
68229;SDS011;55048;52.220;5.160;2022-10-31T08:29:36;34.83;;;16.85;;
68229;SDS011;55048;52.220;5.160;2022-10-31T08:32:03;35.17;;;17.95;;
68229;SDS011;55048;52.220;5.160;2022-10-31T08:35:07;37.38;;;18.45;;
68229;SDS011;55048;52.220;5.160;2022-10-31T08:37:52;36.05;;;18.13;;
68229;SDS011;55048;52.220;5.160;2022-10-31T08:40:19;35.38;;;17.65;;
68229;SDS011;55048;52.220;5.160;2022-10-31T08:42:44;37.30;;;18.67;;
68229;SDS011;55048;52.220;5.160;2022-10-31T08:45:10;34.47;;;17.02;;
68229;SDS011;55048;52.220;5.160;2022-10-31T08:47:36;35.78;;;18.30;;
68229;SDS011;55048;52.220;5.160;2022-10-31T08:50:01;36.17;;;18.70;;
68229;SDS011;55048;52.220;5.160;2022-10-31T08:52:27;34.33;;;18.23;;
68229;SDS011;55048;52.220;5.160;2022-10-31T08:54:58;38.92;;;18.73;;
68229;SDS011;55048;52.220;5.160;2022-10-31T08:57:42;39.40;;;19.52;;
68229;SDS011;55048;52.220;5.160;2022-10-31T09:00:09;45.60;;;19.42;;
68229;SDS011;55048;52.220;5.160;2022-10-31T09:02:58;34.90;;;17.80;;
68229;SDS011;55048;52.220;5.160;2022-10-31T09:05:26;42.60;;;19.85;;
68229;SDS011;55048;52.220;5.160;2022-10-31T09:07:54;40.58;;;19.77;;
68229;SDS011;55048;52.220;5.160;2022-10-31T09:10:23;41.70;;;19.90;;
68229;SDS011;55048;52.220;5.160;2022-10-31T09:12:57;41.83;;;19.58;;
68229;SDS011;55048;52.220;5.160;2022-10-31T09:15:47;41.90;;;20.65;;
68229;SDS011;55048;52.220;5.160;2022-10-31T09:18:23;38.85;;;19.17;;
68229;SDS011;55048;52.220;5.160;2022-10-31T09:20:53;44.67;;;21.33;;
68229;SDS011;55048;52.220;5.160;2022-10-31T09:23:21;46.72;;;22.02;;
68229;SDS011;55048;52.220;5.160;2022-10-31T09:25:48;43.75;;;21.27;;
68229;SDS011;55048;52.220;5.160;2022-10-31T09:28:29;45.38;;;21.80;;
68229;SDS011;55048;52.220;5.160;2022-10-31T09:33:44;51.63;;;22.02;;
68229;SDS011;55048;52.220;5.160;2022-10-31T09:36:30;44.50;;;22.15;;
68229;SDS011;55048;52.220;5.160;2022-10-31T09:38:55;56.45;;;23.02;;
68229;SDS011;55048;52.220;5.160;2022-10-31T09:41:30;50.13;;;24.20;;
68229;SDS011;55048;52.220;5.160;2022-10-31T09:49:33;51.05;;;23.63;;
68229;SDS011;55048;52.220;5.160;2022-10-31T09:52:19;50.95;;;22.00;;
68229;SDS011;55048;52.220;5.160;2022-10-31T09:57:33;42.85;;;22.65;;
68229;SDS011;55048;52.220;5.160;2022-10-31T10:00:03;42.13;;;21.17;;
68229;SDS011;55048;52.220;5.160;2022-10-31T10:05:32;43.55;;;21.63;;
68229;SDS011;55048;52.220;5.160;2022-10-31T10:30:12;34.80;;;16.27;;
68229;SDS011;55048;52.220;5.160;2022-10-31T10:32:51;31.52;;;15.88;;
68229;SDS011;55048;52.220;5.160;2022-10-31T10:40:51;25.30;;;12.98;;
68229;SDS011;55048;52.220;5.160;2022-10-31T10:43:35;27.25;;;12.40;;
68229;SDS011;55048;52.220;5.160;2022-10-31T10:48:56;18.70;;;10.20;;
68229;SDS011;55048;52.220;5.160;2022-10-31T11:00:46;17.98;;;8.35;;
68229;SDS011;55048;52.220;5.160;2022-10-31T11:03:16;9.75;;;7.65;;
68229;SDS011;55048;52.220;5.160;2022-10-31T11:08:35;16.30;;;8.05;;
68229;SDS011;55048;52.220;5.160;2022-10-31T11:13:42;14.90;;;8.95;;
68229;SDS011;55048;52.220;5.160;2022-10-31T11:16:10;15.82;;;9.43;;
68229;SDS011;55048;52.220;5.160;2022-10-31T11:18:42;18.00;;;9.63;;
68229;SDS011;55048;52.220;5.160;2022-10-31T11:21:28;22.15;;;10.02;;
68229;SDS011;55048;52.220;5.160;2022-10-31T11:24:12;18.92;;;10.02;;
68229;SDS011;55048;52.220;5.160;2022-10-31T11:26:41;19.63;;;10.45;;
68229;SDS011;55048;52.220;5.160;2022-10-31T11:29:21;19.13;;;10.40;;
68229;SDS011;55048;52.220;5.160;2022-10-31T11:31:50;21.13;;;10.63;;
68229;SDS011;55048;52.220;5.160;2022-10-31T11:34:32;21.77;;;11.20;;
68229;SDS011;55048;52.220;5.160;2022-10-31T11:37:14;23.02;;;10.45;;
68229;SDS011;55048;52.220;5.160;2022-10-31T11:39:43;21.98;;;11.02;;
68229;SDS011;55048;52.220;5.160;2022-10-31T11:42:10;21.15;;;11.43;;
68229;SDS011;55048;52.220;5.160;2022-10-31T11:44:36;22.67;;;11.20;;
68229;SDS011;55048;52.220;5.160;2022-10-31T11:47:09;25.25;;;11.38;;
68229;SDS011;55048;52.220;5.160;2022-10-31T11:49:40;20.92;;;11.52;;
68229;SDS011;55048;52.220;5.160;2022-10-31T11:52:08;26.02;;;12.43;;
68229;SDS011;55048;52.220;5.160;2022-10-31T11:54:51;21.15;;;12.77;;
68229;SDS011;55048;52.220;5.160;2022-10-31T11:57:25;21.83;;;12.18;;
68229;SDS011;55048;52.220;5.160;2022-10-31T12:00:19;23.93;;;13.40;;
68229;SDS011;55048;52.220;5.160;2022-10-31T12:02:47;26.30;;;13.05;;
68229;SDS011;55048;52.220;5.160;2022-10-31T12:07:54;31.20;;;14.40;;
68229;SDS011;55048;52.220;5.160;2022-10-31T12:10:20;26.80;;;13.95;;
68229;SDS011;55048;52.220;5.160;2022-10-31T12:15:32;30.63;;;15.02;;
68229;SDS011;55048;52.220;5.160;2022-10-31T12:18:08;31.00;;;15.60;;
68229;SDS011;55048;52.220;5.160;2022-10-31T12:23:49;31.15;;;16.17;;
68229;SDS011;55048;52.220;5.160;2022-10-31T12:29:18;33.30;;;16.40;;
68229;SDS011;55048;52.220;5.160;2022-10-31T12:39:54;34.88;;;17.65;;
68229;SDS011;55048;52.220;5.160;2022-10-31T12:45:52;40.20;;;17.85;;
68229;SDS011;55048;52.220;5.160;2022-10-31T12:48:30;40.95;;;18.13;;
68229;SDS011;55048;52.220;5.160;2022-10-31T12:51:21;40.17;;;18.00;;
68229;SDS011;55048;52.220;5.160;2022-10-31T12:59:13;42.53;;;20.05;;
68229;SDS011;55048;52.220;5.160;2022-10-31T13:04:17;41.58;;;20.40;;
68229;SDS011;55048;52.220;5.160;2022-10-31T13:06:55;43.72;;;20.52;;
68229;SDS011;55048;52.220;5.160;2022-10-31T13:09:29;42.88;;;21.58;;
68229;SDS011;55048;52.220;5.160;2022-10-31T13:12:00;45.95;;;19.83;;
68229;SDS011;55048;52.220;5.160;2022-10-31T13:14:36;45.88;;;20.65;;
68229;SDS011;55048;52.220;5.160;2022-10-31T13:17:19;50.72;;;20.48;;
68229;SDS011;55048;52.220;5.160;2022-10-31T13:19:49;45.67;;;20.30;;
68229;SDS011;55048;52.220;5.160;2022-10-31T13:22:20;47.10;;;20.20;;
68229;SDS011;55048;52.220;5.160;2022-10-31T13:27:27;48.08;;;21.35;;
68229;SDS011;55048;52.220;5.160;2022-10-31T13:30:03;46.13;;;21.15;;
68229;SDS011;55048;52.220;5.160;2022-10-31T13:32:42;46.85;;;20.42;;
68229;SDS011;55048;52.220;5.160;2022-10-31T13:35:14;44.20;;;20.08;;
68229;SDS011;55048;52.220;5.160;2022-10-31T13:37:47;46.95;;;20.02;;
68229;SDS011;55048;52.220;5.160;2022-10-31T13:43:02;46.17;;;19.67;;
68229;SDS011;55048;52.220;5.160;2022-10-31T13:45:30;43.33;;;20.08;;
68229;SDS011;55048;52.220;5.160;2022-10-31T13:50:22;43.85;;;19.77;;
68229;SDS011;55048;52.220;5.160;2022-10-31T13:52:50;45.15;;;20.50;;
68229;SDS011;55048;52.220;5.160;2022-10-31T13:55:38;46.17;;;20.42;;
68229;SDS011;55048;52.220;5.160;2022-10-31T14:03:40;39.58;;;17.60;;
68229;SDS011;55048;52.220;5.160;2022-10-31T14:06:07;35.63;;;17.52;;
68229;SDS011;55048;52.220;5.160;2022-10-31T14:08:35;39.22;;;17.55;;
68229;SDS011;55048;52.220;5.160;2022-10-31T14:11:03;40.65;;;17.90;;
68229;SDS011;55048;52.220;5.160;2022-10-31T14:13:35;45.65;;;18.60;;
68229;SDS011;55048;52.220;5.160;2022-10-31T14:16:26;39.88;;;17.98;;
68229;SDS011;55048;52.220;5.160;2022-10-31T14:19:00;36.65;;;17.70;;
68229;SDS011;55048;52.220;5.160;2022-10-31T14:21:41;38.35;;;17.63;;
68229;SDS011;55048;52.220;5.160;2022-10-31T14:26:59;41.20;;;19.45;;
68229;SDS011;55048;52.220;5.160;2022-10-31T14:29:30;46.47;;;21.83;;
68229;SDS011;55048;52.220;5.160;2022-10-31T14:32:15;42.03;;;20.63;;
68229;SDS011;55048;52.220;5.160;2022-10-31T14:42:55;41.92;;;20.25;;
68229;SDS011;55048;52.220;5.160;2022-10-31T14:51:20;46.83;;;19.88;;
68229;SDS011;55048;52.220;5.160;2022-10-31T14:53:48;47.20;;;19.83;;
68229;SDS011;55048;52.220;5.160;2022-10-31T14:56:23;44.33;;;19.20;;
68229;SDS011;55048;52.220;5.160;2022-10-31T14:58:51;39.28;;;19.42;;
68229;SDS011;55048;52.220;5.160;2022-10-31T15:01:26;47.83;;;19.70;;
68229;SDS011;55048;52.220;5.160;2022-10-31T15:04:16;41.58;;;18.75;;
68229;SDS011;55048;52.220;5.160;2022-10-31T15:06:46;40.13;;;16.92;;
68229;SDS011;55048;52.220;5.160;2022-10-31T15:09:21;42.58;;;18.85;;
68229;SDS011;55048;52.220;5.160;2022-10-31T15:11:52;43.70;;;19.05;;
68229;SDS011;55048;52.220;5.160;2022-10-31T15:14:22;34.05;;;17.67;;
68229;SDS011;55048;52.220;5.160;2022-10-31T15:16:50;44.40;;;17.55;;
68229;SDS011;55048;52.220;5.160;2022-10-31T15:19:23;36.88;;;18.13;;
68229;SDS011;55048;52.220;5.160;2022-10-31T15:21:51;42.05;;;19.20;;
68229;SDS011;55048;52.220;5.160;2022-10-31T15:24:18;41.42;;;18.65;;
68229;SDS011;55048;52.220;5.160;2022-10-31T15:26:47;41.38;;;19.05;;
68229;SDS011;55048;52.220;5.160;2022-10-31T15:29:15;38.88;;;18.33;;
68229;SDS011;55048;52.220;5.160;2022-10-31T15:31:53;39.03;;;17.13;;
68229;SDS011;55048;52.220;5.160;2022-10-31T15:36:48;41.63;;;18.35;;
68229;SDS011;55048;52.220;5.160;2022-10-31T15:39:17;41.10;;;18.45;;
68229;SDS011;55048;52.220;5.160;2022-10-31T15:44:24;42.38;;;18.38;;
68229;SDS011;55048;52.220;5.160;2022-10-31T15:47:33;45.08;;;19.58;;
68229;SDS011;55048;52.220;5.160;2022-10-31T15:49:51;40.58;;;18.13;;
68229;SDS011;55048;52.220;5.160;2022-10-31T15:52:29;39.40;;;17.27;;
68229;SDS011;55048;52.220;5.160;2022-10-31T15:55:00;45.92;;;18.77;;
68229;SDS011;55048;52.220;5.160;2022-10-31T15:57:39;39.50;;;18.90;;
68229;SDS011;55048;52.220;5.160;2022-10-31T16:03:07;48.58;;;20.65;;
68229;SDS011;55048;52.220;5.160;2022-10-31T16:13:58;47.92;;;20.20;;
68229;SDS011;55048;52.220;5.160;2022-10-31T16:16:27;48.53;;;19.75;;
68229;SDS011;55048;52.220;5.160;2022-10-31T16:18:53;45.83;;;20.23;;
68229;SDS011;55048;52.220;5.160;2022-10-31T16:21:26;50.83;;;21.48;;
68229;SDS011;55048;52.220;5.160;2022-10-31T16:23:57;44.00;;;19.75;;
68229;SDS011;55048;52.220;5.160;2022-10-31T16:26:26;45.15;;;21.23;;
68229;SDS011;55048;52.220;5.160;2022-10-31T16:28:53;50.72;;;20.88;;
68229;SDS011;55048;52.220;5.160;2022-10-31T16:31:27;46.10;;;20.40;;
68229;SDS011;55048;52.220;5.160;2022-10-31T16:34:02;44.67;;;19.80;;
68229;SDS011;55048;52.220;5.160;2022-10-31T16:36:30;41.25;;;20.10;;
68229;SDS011;55048;52.220;5.160;2022-10-31T16:38:57;47.72;;;20.45;;
68229;SDS011;55048;52.220;5.160;2022-10-31T16:41:23;50.47;;;19.55;;
68229;SDS011;55048;52.220;5.160;2022-10-31T16:43:50;51.83;;;20.63;;
68229;SDS011;55048;52.220;5.160;2022-10-31T16:46:18;42.97;;;19.90;;
68229;SDS011;55048;52.220;5.160;2022-10-31T16:48:48;46.25;;;19.27;;
68229;SDS011;55048;52.220;5.160;2022-10-31T16:51:14;43.17;;;19.90;;
68229;SDS011;55048;52.220;5.160;2022-10-31T16:53:39;44.53;;;19.17;;
68229;SDS011;55048;52.220;5.160;2022-10-31T16:56:04;46.33;;;20.40;;
68229;SDS011;55048;52.220;5.160;2022-10-31T16:58:37;47.40;;;20.10;;
68229;SDS011;55048;52.220;5.160;2022-10-31T17:01:04;52.47;;;20.92;;
68229;SDS011;55048;52.220;5.160;2022-10-31T17:03:30;49.00;;;20.83;;
68229;SDS011;55048;52.220;5.160;2022-10-31T17:05:58;47.72;;;22.23;;
68229;SDS011;55048;52.220;5.160;2022-10-31T17:08:24;46.15;;;20.85;;
68229;SDS011;55048;52.220;5.160;2022-10-31T17:10:56;47.40;;;20.02;;
68229;SDS011;55048;52.220;5.160;2022-10-31T17:13:24;46.55;;;18.75;;
68229;SDS011;55048;52.220;5.160;2022-10-31T17:15:53;48.57;;;21.03;;
68229;SDS011;55048;52.220;5.160;2022-10-31T17:18:20;48.25;;;19.95;;
68229;SDS011;55048;52.220;5.160;2022-10-31T17:20:46;50.08;;;19.13;;
68229;SDS011;55048;52.220;5.160;2022-10-31T17:23:13;57.30;;;20.65;;
68229;SDS011;55048;52.220;5.160;2022-10-31T17:25:40;52.05;;;20.27;;
68229;SDS011;55048;52.220;5.160;2022-10-31T17:28:06;44.35;;;19.33;;
68229;SDS011;55048;52.220;5.160;2022-10-31T17:30:32;39.47;;;18.75;;
68229;SDS011;55048;52.220;5.160;2022-10-31T17:32:58;45.17;;;19.13;;
68229;SDS011;55048;52.220;5.160;2022-10-31T17:35:24;41.22;;;19.55;;
68229;SDS011;55048;52.220;5.160;2022-10-31T17:37:50;42.97;;;19.73;;
68229;SDS011;55048;52.220;5.160;2022-10-31T17:40:16;50.53;;;20.83;;
68229;SDS011;55048;52.220;5.160;2022-10-31T17:42:47;55.28;;;20.80;;
68229;SDS011;55048;52.220;5.160;2022-10-31T17:45:14;48.58;;;20.00;;
68229;SDS011;55048;52.220;5.160;2022-10-31T17:47:39;47.15;;;19.67;;
68229;SDS011;55048;52.220;5.160;2022-10-31T17:50:05;52.03;;;18.55;;
68229;SDS011;55048;52.220;5.160;2022-10-31T17:52:34;50.95;;;19.50;;